Time;durP1;ratioP1;P1;durP2;ratioP2;P2;SDS_P1;SDS_P2;PMS_P1;PMS_P2;Temp;Humidity;BMP_temperature;BMP_pressure;BME280_temperature;BME280_humidity;BME280_pressure;Samples;Min_cycle;Max_cycle;Signal;HPM_P1;HPM_P2
2024/04/13 00:02:15;;;;;;;12.40;4.30;;;;;;;11.56;100.00;101271.96;105543;1258;60234;-79
2024/04/13 00:04:43;;;;;;;9.50;4.00;;;;;;;11.54;100.00;101269.13;105720;1253;73023;-76
2024/04/13 00:07:10;;;;;;;11.30;4.40;;;;;;;11.53;100.00;101268.98;105765;1251;62631;-77
2024/04/13 00:09:37;;;;;;;8.50;4.20;;;;;;;11.52;100.00;101269.05;105812;1256;72664;-77
2024/04/13 00:12:04;;;;;;;6.40;3.90;;;;;;;11.50;100.00;101271.05;105816;1251;60607;-77
2024/04/13 00:14:31;;;;;;;9.40;4.70;;;;;;;11.49;100.00;101270.30;105751;1251;60549;-75
2024/04/13 00:16:57;;;;;;;8.40;4.50;;;;;;;11.47;100.00;101270.21;105769;1251;72632;-76
2024/04/13 00:19:24;;;;;;;8.90;4.20;;;;;;;11.45;100.00;101264.37;105795;1256;62825;-78
2024/04/13 00:21:52;;;;;;;5.70;3.50;;;;;;;11.41;100.00;101267.52;105796;1256;71561;-77
2024/04/13 00:24:19;;;;;;;8.20;4.50;;;;;;;11.38;100.00;101274.86;106021;1256;60528;-75
2024/04/13 00:26:45;;;;;;;9.80;5.20;;;;;;;11.34;100.00;101266.84;105885;1251;60472;-77
2024/04/13 00:29:13;;;;;;;6.20;4.50;;;;;;;11.31;100.00;101270.33;105908;1257;73828;-76
2024/04/13 00:31:40;;;;;;;11.50;4.50;;;;;;;11.28;100.00;101272.59;105845;1251;64015;-78
2024/04/13 00:34:07;;;;;;;10.50;5.40;;;;;;;11.25;100.00;101269.09;105880;1252;72560;-78
2024/04/13 00:36:35;;;;;;;10.20;4.50;;;;;;;11.23;100.00;101272.67;105944;1256;62098;-76
2024/04/13 00:39:05;;;;;;;9.40;4.80;;;;;;;11.20;100.00;101274.05;106034;1255;60370;-79
2024/04/13 00:41:32;;;;;;;9.10;5.00;;;;;;;11.19;100.00;101272.55;105779;1251;73612;-79
2024/04/13 00:44:00;;;;;;;9.30;5.10;;;;;;;11.17;100.00;101272.98;105776;1255;62235;-75
2024/04/13 00:46:31;;;;;;;6.30;5.20;;;;;;;11.16;100.00;101272.17;105769;1257;71480;-77
2024/04/13 00:49:10;;;;;;;9.30;4.80;;;;;;;11.15;100.00;101274.67;105640;1256;61720;-78
2024/04/13 00:51:38;;;;;;;7.10;5.10;;;;;;;11.13;100.00;101272.98;105859;1250;60559;-75
2024/04/13 00:54:04;;;;;;;11.60;5.30;;;;;;;11.12;100.00;101274.32;105851;1256;73578;-77
2024/04/13 00:56:32;;;;;;;8.60;5.30;;;;;;;11.10;100.00;101272.28;105888;1257;63869;-76
2024/04/13 00:58:59;;;;;;;9.00;5.40;;;;;;;11.09;100.00;101270.95;105765;1251;72690;-78
2024/04/13 01:01:27;;;;;;;9.30;5.90;;;;;;;11.08;100.00;101268.70;106013;1251;60569;-79
2024/04/13 01:03:54;;;;;;;10.80;5.60;;;;;;;11.08;100.00;101265.02;105881;1251;60549;-77
2024/04/13 01:06:20;;;;;;;13.20;5.80;;;;;;;11.08;100.00;101269.61;105749;1251;73927;-76
2024/04/13 01:08:50;;;;;;;12.00;6.00;;;;;;;11.07;100.00;101267.92;105692;1256;63859;-76
2024/04/13 01:11:16;;;;;;;8.00;6.00;;;;;;;11.05;100.00;101268.03;105836;1251;72524;-77
2024/04/13 01:13:43;;;;;;;14.20;5.90;;;;;;;11.01;100.00;101264.38;105967;1255;61731;-75
2024/04/13 01:16:10;;;;;;;9.80;6.20;;;;;;;10.99;100.00;101267.45;105767;1257;60524;-76
2024/04/13 01:18:36;;;;;;;12.10;7.30;;;;;;;10.95;100.00;101266.39;105827;1251;73832;-74
2024/04/13 01:21:04;;;;;;;7.90;5.70;;;;;;;10.92;100.00;101270.95;105718;1254;63778;-75
2024/04/13 01:23:32;;;;;;;9.20;6.50;;;;;;;10.89;100.00;101269.88;105948;1251;72675;-76
2024/04/13 01:25:59;;;;;;;11.90;6.80;;;;;;;10.86;100.00;101269.16;105684;1259;61702;-78
2024/04/13 01:28:26;;;;;;;16.20;7.00;;;;;;;10.84;100.00;101270.86;105685;1251;60408;-76
2024/04/13 01:30:56;;;;;;;9.40;6.30;;;;;;;10.81;100.00;101267.87;105644;1251;71707;-75
2024/04/13 01:33:23;;;;;;;9.70;6.60;;;;;;;10.80;100.00;101268.23;106069;1255;63802;-75
2024/04/13 01:35:50;;;;;;;9.90;6.40;;;;;;;10.80;100.00;101267.70;106045;1251;70401;-77
2024/04/13 01:38:17;;;;;;;14.80;7.00;;;;;;;10.81;100.00;101267.52;105928;1256;60866;-75
2024/04/13 01:40:44;;;;;;;17.40;6.40;;;;;;;10.80;100.00;101266.48;106321;1256;60433;-75
2024/04/13 01:43:11;;;;;;;12.70;6.40;;;;;;;10.79;100.00;101265.48;105971;1256;73802;-76
2024/04/13 01:45:38;;;;;;;16.50;6.10;;;;;;;10.79;100.00;101272.83;105776;1257;63775;-74
2024/04/13 01:48:05;;;;;;;13.10;7.00;;;;;;;10.77;100.00;101269.93;105901;1257;71304;-76
2024/04/13 01:50:33;;;;;;;14.20;5.90;;;;;;;10.77;100.00;101275.02;105817;1251;60517;-74
2024/04/13 01:53:00;;;;;;;14.30;9.00;;;;;;;10.77;100.00;101274.68;105830;1251;60602;-76
2024/04/13 01:55:26;;;;;;;18.40;8.30;;;;;;;10.77;100.00;101271.20;105810;1250;73859;-75
2024/04/13 01:57:55;;;;;;;14.60;6.60;;;;;;;10.75;100.00;101270.92;105820;1251;62716;-75
2024/04/13 02:00:22;;;;;;;13.10;5.50;;;;;;;10.75;100.00;101274.08;105761;1251;72534;-76
2024/04/13 02:02:49;;;;;;;11.80;6.70;;;;;;;10.74;100.00;101269.42;105832;1256;61956;-75
2024/04/13 02:05:17;;;;;;;12.30;6.30;;;;;;;10.73;100.00;101273.48;105797;1252;60510;-76
2024/04/13 02:07:44;;;;;;;11.80;6.70;;;;;;;10.71;100.00;101279.13;105879;1251;73951;-75
2024/04/13 02:10:11;;;;;;;8.20;6.50;;;;;;;10.69;100.00;101280.31;105919;1257;62654;-75
2024/04/13 02:12:38;;;;;;;9.40;6.20;;;;;;;10.68;100.00;101276.36;106054;1251;72712;-76
2024/04/13 02:15:05;;;;;;;10.80;5.90;;;;;;;10.66;100.00;101278.73;105961;1256;60486;-76
2024/04/13 02:17:32;;;;;;;9.40;6.60;;;;;;;10.65;100.00;101279.66;105855;1251;60478;-75
2024/04/13 02:19:59;;;;;;;9.10;6.60;;;;;;;10.63;100.00;101286.58;105946;1251;73860;-75
2024/04/13 02:22:28;;;;;;;11.00;6.60;;;;;;;10.61;100.00;101284.04;106047;1256;63747;-76
2024/04/13 02:24:54;;;;;;;11.00;6.60;;;;;;;10.60;100.00;101285.34;105963;1256;72444;-75
2024/04/13 02:27:22;;;;;;;12.50;6.90;;;;;;;10.57;100.00;101284.93;105924;1254;62014;-75
2024/04/13 02:29:50;;;;;;;15.10;6.30;;;;;;;10.54;100.00;101285.26;106039;1251;60435;-74
2024/04/13 02:32:16;;;;;;;16.20;6.10;;;;;;;10.51;100.00;101290.99;106284;1257;71852;-77
2024/04/13 02:34:43;;;;;;;11.30;6.70;;;;;;;10.48;100.00;101289.41;106572;1251;62363;-77
2024/04/13 02:37:10;;;;;;;14.70;6.50;;;;;;;10.46;100.00;101293.89;106523;1253;72520;-76
2024/04/13 02:39:37;;;;;;;10.00;5.10;;;;;;;10.42;100.00;101294.56;106253;1256;61959;-75
2024/04/13 02:42:04;;;;;;;10.00;5.50;;;;;;;10.40;100.00;101294.02;106107;1256;60420;-74
2024/04/13 02:44:31;;;;;;;15.70;6.60;;;;;;;10.36;100.00;101295.90;105967;1256;73839;-73
2024/04/13 02:46:58;;;;;;;12.50;5.60;;;;;;;10.34;100.00;101296.92;105918;1255;63741;-78
2024/04/13 02:49:25;;;;;;;11.30;6.10;;;;;;;10.31;100.00;101295.46;105955;1256;72726;-76
2024/04/13 02:51:52;;;;;;;11.00;5.60;;;;;;;10.28;100.00;101298.02;105919;1264;61883;-74
2024/04/13 02:54:18;;;;;;;11.00;5.40;;;;;;;10.26;100.00;101295.49;105916;1251;60424;-77
2024/04/13 02:56:45;;;;;;;13.70;6.00;;;;;;;10.25;100.00;101297.45;106041;1256;73889;-76
2024/04/13 02:59:13;;;;;;;12.30;5.90;;;;;;;10.25;100.00;101299.56;106008;1257;63646;-76
2024/04/13 03:01:39;;;;;;;9.20;5.40;;;;;;;10.25;100.00;101300.09;106039;1253;72597;-77
2024/04/13 03:04:06;;;;;;;11.20;5.50;;;;;;;10.24;100.00;101299.45;105980;1254;61818;-76
2024/04/13 03:06:33;;;;;;;11.30;5.40;;;;;;;10.23;100.00;101297.89;105910;1251;60665;-75
2024/04/13 03:09:00;;;;;;;10.40;5.80;;;;;;;10.22;100.00;101299.17;106015;1251;74051;-77
2024/04/13 03:11:26;;;;;;;10.20;5.10;;;;;;;10.22;100.00;101301.63;105990;1254;60450;-75
2024/04/13 03:13:53;;;;;;;12.30;6.30;;;;;;;10.20;100.00;101302.58;105972;1253;71069;-74
2024/04/13 03:16:23;;;;;;;13.20;6.70;;;;;;;10.17;100.00;101294.51;105991;1256;61641;-73
2024/04/13 03:18:50;;;;;;;10.10;6.50;;;;;;;10.18;100.00;101299.73;105982;1251;60546;-74
2024/04/13 03:21:16;;;;;;;11.70;5.90;;;;;;;10.18;100.00;101302.33;105906;1254;73933;-77
2024/04/13 03:23:43;;;;;;;7.30;5.10;;;;;;;10.17;100.00;101308.84;105894;1256;60477;-74
2024/04/13 03:26:10;;;;;;;13.60;6.20;;;;;;;10.18;100.00;101309.86;105929;1257;72686;-75
2024/04/13 03:28:37;;;;;;;11.90;5.80;;;;;;;10.20;100.00;101309.77;105991;1255;61978;-77
2024/04/13 03:31:04;;;;;;;12.80;5.00;;;;;;;10.21;100.00;101314.27;105912;1258;60434;-75
2024/04/13 03:33:31;;;;;;;13.50;5.90;;;;;;;10.22;100.00;101311.43;105741;1258;73899;-75
2024/04/13 03:36:04;;;;;;;13.60;6.60;;;;;;;10.23;100.00;101315.59;105813;1251;62891;-75
2024/04/13 03:38:30;;;;;;;10.30;5.00;;;;;;;10.24;100.00;101315.67;105885;1257;72620;-75
2024/04/13 03:41:08;;;;;;;15.10;6.20;;;;;;;10.27;100.00;101319.94;105866;1256;62085;-75
2024/04/13 03:43:38;;;;;;;14.00;5.10;;;;;;;10.28;100.00;101316.02;105745;1251;60367;-76
2024/04/13 03:46:06;;;;;;;9.90;5.20;;;;;;;10.30;100.00;101314.52;105789;1256;75073;-75
2024/04/13 03:48:33;;;;;;;15.50;5.90;;;;;;;10.37;100.00;101318.59;105874;1257;64764;-75
2024/04/13 03:51:01;;;;;;;18.00;7.50;;;;;;;10.45;100.00;101311.94;105796;1255;72624;-75
2024/04/13 03:53:28;;;;;;;13.50;6.10;;;;;;;10.55;100.00;101311.44;105876;1256;61972;-73
2024/04/13 03:55:56;;;;;;;11.00;5.90;;;;;;;10.69;100.00;101313.70;105803;1252;61292;-75
2024/04/13 03:58:22;;;;;;;17.10;5.60;;;;;;;10.83;100.00;101310.06;105966;1255;74663;-77
2024/04/13 04:00:49;;;;;;;11.90;5.90;;;;;;;10.96;100.00;101309.06;105943;1258;63534;-74
2024/04/13 04:03:17;;;;;;;9.60;5.30;;;;;;;11.08;100.00;101310.55;105995;1257;71515;-75
2024/04/13 04:05:43;;;;;;;12.30;5.30;;;;;;;11.19;100.00;101309.11;105763;1257;61402;-75
2024/04/13 04:08:10;;;;;;;14.00;6.20;;;;;;;11.31;100.00;101311.80;105701;1252;61909;-76
2024/04/13 04:10:36;;;;;;;9.00;5.50;;;;;;;11.48;100.00;101311.12;105827;1250;74563;-76
2024/04/13 04:13:05;;;;;;;10.20;4.70;;;;;;;11.66;100.00;101309.13;105853;1256;63679;-75
2024/04/13 04:15:33;;;;;;;11.30;5.80;;;;;;;11.80;100.00;101307.66;105918;1251;72482;-74
2024/04/13 04:18:00;;;;;;;21.30;5.60;;;;;;;11.91;100.00;101310.78;105747;1257;61368;-75
2024/04/13 04:20:27;;;;;;;20.20;5.90;;;;;;;11.99;100.00;101304.73;105992;1257;61246;-77
2024/04/13 04:22:54;;;;;;;10.00;4.80;;;;;;;12.05;100.00;101298.98;105774;1255;74703;-76
2024/04/13 04:25:21;;;;;;;15.20;5.50;;;;;;;12.12;100.00;101299.60;105966;1256;61256;-75
2024/04/13 04:27:48;;;;;;;11.50;4.70;;;;;;;12.22;100.00;101305.58;105806;1252;72546;-73
2024/04/13 04:30:15;;;;;;;9.80;5.30;;;;;;;12.32;100.00;101304.66;105836;1257;62011;-75
2024/04/13 04:32:42;;;;;;;15.10;6.20;;;;;;;12.41;100.00;101303.61;105863;1251;61252;-77
2024/04/13 04:35:09;;;;;;;10.60;4.50;;;;;;;12.49;100.00;101303.15;105912;1251;72125;-75
2024/04/13 04:37:36;;;;;;;10.00;5.00;;;;;;;12.58;100.00;101301.40;105872;1255;64027;-74
2024/04/13 04:40:04;;;;;;;16.80;5.40;;;;;;;12.71;100.00;101301.23;105822;1257;72629;-75
2024/04/13 04:42:31;;;;;;;10.70;5.00;;;;;;;12.84;100.00;101306.03;105811;1251;61897;-77
2024/04/13 04:44:57;;;;;;;17.20;4.90;;;;;;;13.00;100.00;101308.95;105834;1251;61333;-74
2024/04/13 04:47:24;;;;;;;10.50;4.70;;;;;;;13.18;100.00;101312.29;105972;1257;61221;-75
2024/04/13 04:49:52;;;;;;;8.40;4.50;;;;;;;13.36;100.00;101308.80;105890;1256;63813;-76
2024/04/13 04:52:18;;;;;;;12.90;5.90;;;;;;;13.58;100.00;101298.68;105902;1257;72519;-77
2024/04/13 04:54:45;;;;;;;16.00;6.40;;;;;;;13.92;100.00;101293.77;105877;1256;61333;-75
2024/04/13 04:57:12;;;;;;;8.00;5.10;;;;;;;14.42;100.00;101298.27;105958;1251;61314;-76
2024/04/13 04:59:38;;;;;;;7.60;4.10;;;;;;;14.99;100.00;101297.19;105900;1256;74649;-74
2024/04/13 05:02:05;;;;;;;8.80;4.40;;;;;;;15.52;100.00;101292.11;105819;1256;63780;-75
2024/04/13 05:04:32;;;;;;;16.10;4.70;;;;;;;16.01;100.00;101292.41;105820;1251;72662;-75
2024/04/13 05:06:59;;;;;;;11.40;3.50;;;;;;;16.49;99.85;101296.47;105772;1252;61343;-74
2024/04/13 05:09:29;;;;;;;8.40;3.60;;;;;;;16.98;94.32;101301.83;105915;1251;61263;-75
2024/04/13 05:11:55;;;;;;;6.70;3.20;;;;;;;17.53;87.17;101300.43;105836;1257;74443;-74
2024/04/13 05:14:22;;;;;;;5.60;3.20;;;;;;;18.12;79.22;101297.12;105741;1257;63840;-75
2024/04/13 05:16:49;;;;;;;7.20;3.80;;;;;;;18.69;72.79;101294.25;105810;1256;72401;-75
2024/04/13 05:19:16;;;;;;;5.20;3.80;;;;;;;19.22;69.47;101296.54;105822;1253;61246;-76
2024/04/13 05:21:42;;;;;;;5.60;2.90;;;;;;;19.68;62.36;101299.83;105918;1257;61223;-79
2024/04/13 05:24:10;;;;;;;7.70;3.70;;;;;;;20.08;58.26;101298.59;105823;1252;73179;-75
2024/04/13 05:26:36;;;;;;;7.10;4.00;;;;;;;20.39;55.35;101302.58;105852;1264;62912;-77
2024/04/13 05:29:03;;;;;;;11.40;4.40;;;;;;;20.70;54.02;101300.64;106462;1251;61400;-73
2024/04/13 05:31:30;;;;;;;7.10;3.20;;;;;;;21.02;50.80;101300.17;105812;1256;61613;-75
2024/04/13 05:33:57;;;;;;;6.70;3.40;;;;;;;21.26;50.01;101297.58;105915;1257;61225;-75
2024/04/13 05:36:24;;;;;;;4.00;2.90;;;;;;;21.56;49.69;101296.89;105883;1257;74659;-75
2024/04/13 05:38:51;;;;;;;7.10;3.00;;;;;;;21.93;47.89;101293.34;105895;1253;62500;-73
2024/04/13 05:41:18;;;;;;;6.90;3.20;;;;;;;22.16;45.29;101293.02;105979;1257;72616;-77
2024/04/13 05:43:44;;;;;;;6.10;3.40;;;;;;;22.29;44.58;101290.67;105881;1257;61176;-74
2024/04/13 05:46:11;;;;;;;8.10;4.00;;;;;;;22.45;43.95;101287.03;105920;1251;61266;-77
2024/04/13 05:48:38;;;;;;;7.40;3.80;;;;;;;22.65;43.03;101287.11;105864;1257;74648;-75
2024/04/13 05:51:05;;;;;;;13.00;5.30;;;;;;;22.77;41.73;101287.70;105863;1256;63861;-77
2024/04/13 05:53:32;;;;;;;7.10;3.70;;;;;;;22.74;41.78;101286.57;105857;1251;72745;-77
2024/04/13 05:56:08;;;;;;;4.90;2.80;;;;;;;22.78;42.39;101288.10;105895;1251;61208;-76
2024/04/13 05:58:36;;;;;;;6.30;3.10;;;;;;;22.91;42.04;101290.71;105901;1251;61260;-77
2024/04/13 06:01:03;;;;;;;15.00;4.00;;;;;;;23.06;41.97;101290.16;105888;1257;74899;-77
2024/04/13 06:03:30;;;;;;;6.60;3.40;;;;;;;23.29;41.67;101287.02;105873;1257;63879;-76
2024/04/13 06:05:56;;;;;;;13.20;4.50;;;;;;;23.56;41.56;101287.42;105904;1257;72515;-77
2024/04/13 06:08:23;;;;;;;8.00;3.70;;;;;;;23.79;40.95;101287.60;105954;1257;61275;-78
2024/04/13 06:10:51;;;;;;;4.70;3.40;;;;;;;23.87;39.94;101280.67;105971;1251;61949;-77
2024/04/13 06:13:18;;;;;;;4.70;3.40;;;;;;;23.81;39.50;101281.59;105750;1256;74683;-77
2024/04/13 06:15:45;;;;;;;9.30;4.10;;;;;;;23.85;40.09;101283.02;105790;1251;63994;-76
2024/04/13 06:18:12;;;;;;;4.60;3.20;;;;;;;23.89;39.79;101280.75;105907;1256;72512;-81
2024/04/13 06:20:39;;;;;;;5.30;3.80;;;;;;;23.99;39.33;101282.96;105860;1256;61125;-78
2024/04/13 06:23:06;;;;;;;5.20;3.10;;;;;;;24.19;39.35;101282.35;105861;1252;61257;-78
2024/04/13 06:25:33;;;;;;;5.20;3.50;;;;;;;24.49;38.83;101280.93;106022;1256;74617;-76
2024/04/13 06:27:59;;;;;;;7.20;3.90;;;;;;;24.79;37.91;101275.23;106068;1256;63681;-77
2024/04/13 06:30:26;;;;;;;6.90;3.30;;;;;;;24.91;37.50;101269.11;106407;1257;72738;-77
2024/04/13 06:32:53;;;;;;;8.90;3.70;;;;;;;25.08;37.57;101267.20;105940;1256;61228;-78
2024/04/13 06:35:20;;;;;;;11.60;3.20;;;;;;;25.33;37.14;101274.98;106041;1264;61234;-78
2024/04/13 06:37:48;;;;;;;4.90;3.30;;;;;;;25.61;36.97;101272.48;106154;1252;73103;-75
2024/04/13 06:40:15;;;;;;;4.30;3.00;;;;;;;25.93;36.60;101269.59;105943;1257;62446;-77
2024/04/13 06:42:42;;;;;;;6.80;3.20;;;;;;;26.26;35.72;101272.27;105918;1256;73032;-78
2024/04/13 06:45:08;;;;;;;6.80;3.10;;;;;;;26.53;35.14;101269.59;106061;1251;61342;-76
2024/04/13 06:47:35;;;;;;;6.00;3.30;;;;;;;26.74;34.94;101266.64;105987;1257;61332;-81
2024/04/13 06:50:03;;;;;;;7.00;2.70;;;;;;;26.89;34.50;101265.70;105946;1251;74984;-80
2024/04/13 06:52:29;;;;;;;5.50;3.10;;;;;;;26.94;34.31;101263.67;105933;1257;64648;-77
2024/04/13 06:54:57;;;;;;;7.20;3.10;;;;;;;27.01;33.92;101260.46;105931;1257;74363;-78
2024/04/13 06:57:25;;;;;;;9.00;2.90;;;;;;;27.12;33.85;101258.16;105935;1257;61214;-79
2024/04/13 06:59:53;;;;;;;7.40;2.90;;;;;;;27.27;34.04;101260.15;105804;1255;61423;-81
2024/04/13 07:02:21;;;;;;;5.30;2.80;;;;;;;27.49;33.62;101257.46;105904;1257;74464;-80
2024/04/13 07:04:50;;;;;;;8.10;2.90;;;;;;;27.75;33.35;101256.70;105850;1256;61311;-79
2024/04/13 07:07:17;;;;;;;5.10;2.40;;;;;;;27.99;32.69;101255.00;105883;1251;72684;-78
2024/04/13 07:09:44;;;;;;;6.30;2.90;;;;;;;28.23;33.11;101254.23;105918;1251;61278;-80
2024/04/13 07:12:11;;;;;;;6.60;2.90;;;;;;;28.54;32.69;101254.99;105883;1257;61215;-81
2024/04/13 07:14:38;;;;;;;7.10;2.70;;;;;;;28.79;32.20;101258.97;105887;1251;74928;-80
2024/04/13 07:17:06;;;;;;;5.90;2.60;;;;;;;29.08;31.30;101257.13;105787;1256;64421;-77
2024/04/13 07:19:34;;;;;;;3.90;2.20;;;;;;;29.30;31.38;101252.09;105838;1251;72577;-80
2024/04/13 07:22:00;;;;;;;5.50;2.30;;;;;;;29.55;31.00;101251.31;105797;1255;61332;-80
2024/04/13 07:24:29;;;;;;;4.00;2.50;;;;;;;29.78;30.69;101249.23;105769;1251;61221;-82
2024/04/13 07:26:56;;;;;;;6.40;2.90;;;;;;;29.91;30.39;101250.20;105862;1255;72964;-81
2024/04/13 07:29:22;;;;;;;4.30;2.30;;;;;;;29.98;29.99;101242.10;105920;1251;63877;-80
2024/04/13 07:31:49;;;;;;;8.80;2.40;;;;;;;30.09;30.26;101248.53;105787;1252;72667;-81
2024/04/13 07:34:16;;;;;;;2.60;2.10;;;;;;;30.24;29.47;101241.73;105738;1256;61105;-80
2024/04/13 07:36:43;;;;;;;7.60;2.40;;;;;;;30.18;28.79;101240.73;105830;1251;61247;-76
2024/04/13 07:39:11;;;;;;;5.30;2.90;;;;;;;30.10;29.20;101237.60;105781;1251;75053;-79
2024/04/13 07:41:39;;;;;;;4.70;3.50;;;;;;;30.22;29.54;101236.19;106108;1256;63822;-79
2024/04/13 07:44:06;;;;;;;5.10;3.00;;;;;;;30.37;29.36;101234.19;105953;1251;72532;-79
2024/04/13 07:46:33;;;;;;;6.50;3.40;;;;;;;30.46;29.42;101229.17;105838;1251;61339;-82
2024/04/13 07:49:00;;;;;;;6.30;2.80;;;;;;;30.52;29.49;101228.18;105690;1251;61356;-80
2024/04/13 07:51:27;;;;;;;7.00;3.00;;;;;;;30.65;29.25;101229.42;105804;1257;74628;-80
2024/04/13 07:53:53;;;;;;;10.10;3.10;;;;;;;30.78;28.69;101228.57;105797;1256;63855;-80
2024/04/13 07:56:21;;;;;;;5.80;3.30;;;;;;;30.83;28.51;101229.61;105797;1257;72018;-80
2024/04/13 07:58:48;;;;;;;8.80;4.80;;;;;;;30.84;28.81;101224.23;105851;1257;62025;-79
2024/04/13 08:01:14;;;;;;;16.70;5.00;;;;;;;30.85;28.90;101223.63;105830;1264;61262;-77
2024/04/13 08:03:41;;;;;;;13.20;6.70;;;;;;;30.86;28.65;101218.54;105916;1255;73681;-77
2024/04/13 08:06:08;;;;;;;14.10;5.10;;;;;;;30.87;29.50;101219.94;106009;1257;64096;-80
2024/04/13 08:08:35;;;;;;;7.80;3.10;;;;;;;30.84;28.21;101219.23;105978;1251;71147;-81
2024/04/13 08:11:07;;;;;;;9.10;3.10;;;;;;;30.52;28.64;101213.81;105865;1257;61218;-78
2024/04/13 08:13:38;;;;;;;6.00;3.00;;;;;;;30.58;29.18;101210.94;105854;1257;61607;-81
2024/04/13 08:16:06;;;;;;;4.70;2.50;;;;;;;30.77;28.79;101212.52;105865;1251;75962;-77
2024/04/13 08:18:36;;;;;;;13.80;2.70;;;;;;;30.84;28.16;101213.19;105880;1257;64107;-80
2024/04/13 08:21:03;;;;;;;7.00;2.20;;;;;;;30.74;27.95;101209.08;105796;1251;71677;-81
2024/04/13 08:23:30;;;;;;;3.00;1.60;;;;;;;30.69;28.13;101206.92;105832;1256;61228;-79
2024/04/13 08:26:03;;;;;;;7.20;1.80;;;;;;;30.75;27.97;101200.77;105949;1257;61343;-78
2024/04/13 08:28:30;;;;;;;5.30;1.60;;;;;;;30.94;28.48;101202.81;105793;1255;75418;-80
2024/04/13 08:31:02;;;;;;;3.70;2.00;;;;;;;31.09;27.78;101196.73;105777;1257;63829;-80
2024/04/13 08:33:29;;;;;;;9.20;2.00;;;;;;;31.15;28.15;101196.91;105832;1251;74324;-81
2024/04/13 08:36:03;;;;;;;5.70;2.10;;;;;;;31.23;27.42;101200.39;105842;1256;61982;-79
2024/04/13 08:38:31;;;;;;;6.20;2.20;;;;;;;31.08;27.50;101190.60;105950;1251;61340;-78
2024/04/13 08:41:35;;;;;;;6.20;1.90;;;;;;;31.01;27.58;101190.33;105919;1251;74455;-82
2024/04/13 08:44:03;;;;;;;5.30;2.20;;;;;;;30.91;27.04;101185.52;105904;1255;64841;-80
2024/04/13 08:46:31;;;;;;;4.40;2.00;;;;;;;30.76;27.60;101178.29;105889;1251;73721;-80
2024/04/13 08:48:58;;;;;;;3.50;3.20;;;;;;;30.68;27.32;101180.48;106014;1251;61380;-81
2024/04/13 08:51:25;;;;;;;9.40;2.90;;;;;;;30.58;27.97;101171.20;105854;1251;61411;-76
2024/04/13 08:53:52;;;;;;;3.10;1.70;;;;;;;30.64;27.85;101174.44;105809;1251;74964;-79
2024/04/13 08:56:23;;;;;;;6.30;1.50;;;;;;;30.63;27.34;101177.52;105826;1257;65090;-79
2024/04/13 08:58:51;;;;;;;6.70;1.70;;;;;;;30.45;27.39;101166.23;106036;1251;72663;-80
2024/04/13 09:01:21;;;;;;;3.30;1.20;;;;;;;30.38;28.05;101167.09;105846;1251;61375;-77
2024/04/13 09:03:49;;;;;;;7.90;1.40;;;;;;;30.40;28.31;101163.45;106071;1255;61254;-83
2024/04/13 09:06:17;;;;;;;4.60;0.90;;;;;;;30.34;27.93;101161.98;105767;1252;74608;-77
2024/04/13 09:08:47;;;;;;;4.80;1.10;;;;;;;30.10;28.01;101168.92;105772;1257;63687;-80
2024/04/13 09:11:15;;;;;;;3.00;1.00;;;;;;;29.84;27.75;101165.79;105549;1258;76022;-77
2024/04/13 09:13:43;;;;;;;6.10;1.70;;;;;;;29.64;28.14;101160.40;105855;1255;62018;-78
2024/04/13 09:16:10;;;;;;;1.50;0.90;;;;;;;29.40;27.89;101161.41;105877;1251;61600;-82
2024/04/13 09:18:39;;;;;;;1.60;0.80;;;;;;;29.13;27.92;101162.05;106018;1252;75070;-78
2024/04/13 09:21:07;;;;;;;1.50;0.70;;;;;;;28.83;28.52;101162.75;105959;1251;63922;-78
2024/04/13 09:23:34;;;;;;;4.90;1.10;;;;;;;28.61;29.04;101160.05;105905;1251;73617;-78
2024/04/13 09:26:02;;;;;;;1.90;0.90;;;;;;;28.38;28.43;101155.64;105938;1256;61403;-78
2024/04/13 09:28:44;;;;;;;3.90;1.20;;;;;;;28.15;28.77;101146.11;105968;1257;62099;-79
2024/04/13 09:31:12;;;;;;;7.10;2.20;;;;;;;28.07;29.15;101144.92;105945;1254;75634;-80
2024/04/13 09:33:39;;;;;;;7.80;1.80;;;;;;;27.97;29.35;101138.45;106024;1251;64087;-78
2024/04/13 09:36:07;;;;;;;3.70;1.10;;;;;;;27.94;29.60;101140.89;105946;1254;72924;-79
2024/04/13 09:38:35;;;;;;;4.20;1.20;;;;;;;27.96;29.55;101135.26;105810;1251;61989;-78
2024/04/13 09:41:03;;;;;;;5.20;1.40;;;;;;;27.99;29.71;101130.46;105834;1257;61228;-77
2024/04/13 09:43:30;;;;;;;7.20;2.10;;;;;;;28.03;30.23;101133.16;105932;1251;74692;-80
2024/04/13 09:45:58;;;;;;;3.70;2.10;;;;;;;27.99;30.19;101130.55;105786;1257;64749;-80
2024/04/13 09:48:25;;;;;;;6.20;2.10;;;;;;;27.80;30.36;101128.36;106093;1251;73721;-78
2024/04/13 09:50:52;;;;;;;8.40;2.70;;;;;;;27.61;30.73;101127.17;105817;1251;61321;-78
2024/04/13 09:53:20;;;;;;;5.20;1.90;;;;;;;27.52;30.96;101126.84;106090;1251;61262;-80
2024/04/13 09:55:47;;;;;;;10.30;2.70;;;;;;;27.49;31.11;101119.35;105900;1251;74664;-80
2024/04/13 09:58:14;;;;;;;5.30;3.00;;;;;;;27.56;31.32;101118.30;106105;1255;63925;-78
2024/04/13 10:00:43;;;;;;;7.90;1.60;;;;;;;27.66;31.05;101114.84;105994;1257;73888;-77
2024/04/13 10:03:11;;;;;;;5.40;1.50;;;;;;;27.78;31.78;101112.88;108190;1251;61332;-77
2024/04/13 10:05:38;;;;;;;6.30;1.50;;;;;;;27.91;31.59;101113.92;108192;1251;61231;-77
2024/04/13 10:08:06;;;;;;;5.00;1.80;;;;;;;27.92;30.95;101113.65;106422;1251;75723;-75
2024/04/13 10:10:39;;;;;;;2.50;2.00;;;;;;;27.88;31.13;101110.87;106128;1255;63943;-76
2024/04/13 10:13:05;;;;;;;6.10;1.50;;;;;;;27.90;31.03;101107.87;106014;1251;72657;-77
2024/04/13 10:15:32;;;;;;;3.60;1.40;;;;;;;27.93;30.59;101100.89;105956;1251;61432;-78
2024/04/13 10:18:00;;;;;;;3.80;1.30;;;;;;;27.99;30.58;101101.84;105826;1251;61410;-77
2024/04/13 10:20:28;;;;;;;1.90;1.10;;;;;;;28.02;30.63;101099.41;105985;1251;75386;-80
2024/04/13 10:22:55;;;;;;;1.90;1.40;;;;;;;28.00;30.80;101099.24;105859;1254;64662;-79
2024/04/13 10:25:26;;;;;;;4.00;1.40;;;;;;;28.07;31.00;101091.58;105729;1257;74000;-78
2024/04/13 10:28:04;;;;;;;3.40;1.90;;;;;;;28.18;31.21;101093.02;105786;1257;61250;-78
2024/04/13 10:30:52;;;;;;;8.30;1.70;;;;;;;28.34;30.48;101092.14;105957;1251;61359;-77
2024/04/13 10:33:20;;;;;;;6.70;1.80;;;;;;;28.32;30.18;101088.39;105884;1257;75679;-81
2024/04/13 10:35:55;;;;;;;7.90;1.70;;;;;;;28.18;30.04;101082.20;105935;1255;64589;-80
2024/04/13 10:38:24;;;;;;;8.30;1.80;;;;;;;28.10;30.07;101083.80;106068;1256;73785;-80
2024/04/13 10:40:51;;;;;;;7.60;1.40;;;;;;;28.07;30.00;101084.52;105834;1256;61337;-79
2024/04/13 10:43:19;;;;;;;5.20;1.10;;;;;;;28.05;29.83;101081.90;105830;1251;61387;-79
2024/04/13 10:46:01;;;;;;;6.60;1.20;;;;;;;27.99;30.12;101082.65;105791;1252;74691;-79
2024/04/13 10:48:30;;;;;;;8.20;1.70;;;;;;;27.96;30.06;101083.16;105799;1256;63836;-78
2024/04/13 10:50:58;;;;;;;7.80;1.60;;;;;;;27.98;29.94;101079.02;105796;1251;72686;-77
2024/04/13 10:53:27;;;;;;;3.20;1.50;;;;;;;28.07;29.98;101074.11;105942;1251;61339;-78
2024/04/13 10:55:56;;;;;;;4.50;1.20;;;;;;;28.25;29.90;101069.52;106039;1251;61569;-78
2024/04/13 10:58:28;;;;;;;3.40;2.10;;;;;;;28.48;29.45;101068.74;106038;1256;75933;-80
2024/04/13 11:00:55;;;;;;;1.80;0.80;;;;;;;28.58;28.92;101078.56;105963;1251;65159;-80
2024/04/13 11:03:24;;;;;;;4.30;1.50;;;;;;;28.54;28.54;101069.95;106025;1251;73674;-80
2024/04/13 11:05:50;;;;;;;4.30;1.40;;;;;;;28.57;28.71;101077.73;105768;1251;61276;-80
2024/04/13 11:08:18;;;;;;;3.90;1.30;;;;;;;28.51;28.02;101068.28;106046;1256;61135;-79
2024/04/13 11:10:50;;;;;;;2.10;1.00;;;;;;;28.40;28.52;101060.52;105907;1255;75778;-79
2024/04/13 11:13:19;;;;;;;4.20;1.60;;;;;;;28.34;28.73;101062.54;105934;1251;65252;-79
2024/04/13 11:15:47;;;;;;;6.60;1.20;;;;;;;28.23;28.37;101061.06;106101;1253;73819;-77